sensor_id;sensor_type;location;lat;lon;timestamp;temperature;humidity
71117;SHT31;58775;46.992;9.518;2023-08-24T03:41:18;24.09;70.55
71117;SHT31;58775;46.992;9.518;2023-08-24T03:49:47;23.95;70.89
71117;SHT31;58775;46.992;9.518;2023-08-24T03:51:49;23.95;70.70
71117;SHT31;58775;46.992;9.518;2023-08-24T03:53:49;23.89;70.91
71117;SHT31;58775;46.992;9.518;2023-08-24T03:55:51;23.88;71.26
71117;SHT31;58775;46.992;9.518;2023-08-24T03:57:54;23.92;70.46
71117;SHT31;58775;46.992;9.518;2023-08-24T03:59:59;23.97;70.38
71117;SHT31;58775;46.992;9.518;2023-08-24T04:02:01;24.01;70.36
71117;SHT31;58775;46.992;9.518;2023-08-24T04:04:03;23.92;70.41
71117;SHT31;58775;46.992;9.518;2023-08-24T04:06:05;24.02;69.67
71117;SHT31;58775;46.992;9.518;2023-08-24T04:08:06;24.15;69.21
71117;SHT31;58775;46.992;9.518;2023-08-24T04:10:08;24.12;69.09
71117;SHT31;58775;46.992;9.518;2023-08-24T04:12:19;24.25;68.54
71117;SHT31;58775;46.992;9.518;2023-08-24T04:19:03;24.49;67.02
71117;SHT31;58775;46.992;9.518;2023-08-24T04:21:04;24.64;66.55
71117;SHT31;58775;46.992;9.518;2023-08-24T04:23:05;24.70;66.42
71117;SHT31;58775;46.992;9.518;2023-08-24T04:25:06;24.70;66.57
71117;SHT31;58775;46.992;9.518;2023-08-24T04:27:07;24.80;65.94
71117;SHT31;58775;46.992;9.518;2023-08-24T04:29:08;24.82;65.81
71117;SHT31;58775;46.992;9.518;2023-08-24T04:31:09;24.88;65.75
71117;SHT31;58775;46.992;9.518;2023-08-24T04:33:10;24.93;65.23
71117;SHT31;58775;46.992;9.518;2023-08-24T04:35:11;25.07;64.84
71117;SHT31;58775;46.992;9.518;2023-08-24T04:37:12;25.18;64.16
71117;SHT31;58775;46.992;9.518;2023-08-24T04:39:13;25.35;63.13
71117;SHT31;58775;46.992;9.518;2023-08-24T04:41:14;25.46;63.22
71117;SHT31;58775;46.992;9.518;2023-08-24T04:43:24;25.39;63.42
71117;SHT31;58775;46.992;9.518;2023-08-24T04:45:25;25.49;62.52
71117;SHT31;58775;46.992;9.518;2023-08-24T04:47:26;25.64;62.28
71117;SHT31;58775;46.992;9.518;2023-08-24T04:49:27;25.65;62.44
71117;SHT31;58775;46.992;9.518;2023-08-24T04:51:29;25.79;62.00
71117;SHT31;58775;46.992;9.518;2023-08-24T04:53:30;25.74;62.68
71117;SHT31;58775;46.992;9.518;2023-08-24T04:55:30;25.76;62.32
71117;SHT31;58775;46.992;9.518;2023-08-24T04:57:31;25.69;63.22
71117;SHT31;58775;46.992;9.518;2023-08-24T04:59:32;25.66;63.60
71117;SHT31;58775;46.992;9.518;2023-08-24T05:01:34;25.58;63.25
71117;SHT31;58775;46.992;9.518;2023-08-24T05:03:35;25.35;64.25
71117;SHT31;58775;46.992;9.518;2023-08-24T05:05:36;25.20;64.70
71117;SHT31;58775;46.992;9.518;2023-08-24T05:07:38;25.17;64.62
71117;SHT31;58775;46.992;9.518;2023-08-24T05:09:38;25.14;64.84
71117;SHT31;58775;46.992;9.518;2023-08-24T05:11:39;24.94;65.72
71117;SHT31;58775;46.992;9.518;2023-08-24T05:13:41;24.83;65.95
71117;SHT31;58775;46.992;9.518;2023-08-24T05:15:41;24.69;66.20
71117;SHT31;58775;46.992;9.518;2023-08-24T05:17:43;24.59;66.16
71117;SHT31;58775;46.992;9.518;2023-08-24T05:19:43;24.56;66.43
71117;SHT31;58775;46.992;9.518;2023-08-24T05:21:44;24.42;66.92
71117;SHT31;58775;46.992;9.518;2023-08-24T05:23:45;24.36;67.10
71117;SHT31;58775;46.992;9.518;2023-08-24T05:25:46;24.39;67.22
71117;SHT31;58775;46.992;9.518;2023-08-24T05:27:47;24.42;66.61
71117;SHT31;58775;46.992;9.518;2023-08-24T05:29:48;24.43;66.85
71117;SHT31;58775;46.992;9.518;2023-08-24T05:31:49;24.33;67.02
71117;SHT31;58775;46.992;9.518;2023-08-24T05:33:49;24.33;67.22
71117;SHT31;58775;46.992;9.518;2023-08-24T05:35:51;24.36;66.94
71117;SHT31;58775;46.992;9.518;2023-08-24T05:37:52;24.60;66.70
71117;SHT31;58775;46.992;9.518;2023-08-24T05:39:53;24.72;66.47
71117;SHT31;58775;46.992;9.518;2023-08-24T05:41:53;24.76;66.46
71117;SHT31;58775;46.992;9.518;2023-08-24T05:43:54;24.88;66.17
71117;SHT31;58775;46.992;9.518;2023-08-24T05:45:56;25.03;65.53
71117;SHT31;58775;46.992;9.518;2023-08-24T05:47:59;25.24;64.84
71117;SHT31;58775;46.992;9.518;2023-08-24T05:50:00;25.33;64.68
71117;SHT31;58775;46.992;9.518;2023-08-24T05:52:01;25.31;64.09
71117;SHT31;58775;46.992;9.518;2023-08-24T05:54:02;25.52;63.93
71117;SHT31;58775;46.992;9.518;2023-08-24T05:56:03;25.88;63.25
71117;SHT31;58775;46.992;9.518;2023-08-24T05:58:04;26.13;62.44
71117;SHT31;58775;46.992;9.518;2023-08-24T06:00:05;26.37;61.44
71117;SHT31;58775;46.992;9.518;2023-08-24T06:02:12;26.56;60.82
71117;SHT31;58775;46.992;9.518;2023-08-24T06:04:13;26.68;60.01
71117;SHT31;58775;46.992;9.518;2023-08-24T06:06:14;26.78;59.31
71117;SHT31;58775;46.992;9.518;2023-08-24T06:08:15;26.95;59.06
71117;SHT31;58775;46.992;9.518;2023-08-24T06:10:16;27.14;58.32
71117;SHT31;58775;46.992;9.518;2023-08-24T06:12:17;27.36;57.55
71117;SHT31;58775;46.992;9.518;2023-08-24T06:14:18;27.53;56.63
71117;SHT31;58775;46.992;9.518;2023-08-24T06:16:20;27.79;56.25
71117;SHT31;58775;46.992;9.518;2023-08-24T06:18:21;28.24;56.63
71117;SHT31;58775;46.992;9.518;2023-08-24T06:20:22;27.94;56.44
71117;SHT31;58775;46.992;9.518;2023-08-24T06:22:23;28.14;55.89
71117;SHT31;58775;46.992;9.518;2023-08-24T06:24:23;28.06;56.60
71117;SHT31;58775;46.992;9.518;2023-08-24T06:26:24;28.18;55.15
71117;SHT31;58775;46.992;9.518;2023-08-24T06:28:26;28.48;55.02
71117;SHT31;58775;46.992;9.518;2023-08-24T06:30:27;28.67;54.05
71117;SHT31;58775;46.992;9.518;2023-08-24T06:32:28;28.65;54.24
71117;SHT31;58775;46.992;9.518;2023-08-24T06:34:36;28.51;53.35
71117;SHT31;58775;46.992;9.518;2023-08-24T06:36:37;28.75;53.60
71117;SHT31;58775;46.992;9.518;2023-08-24T06:38:44;28.59;53.68
71117;SHT31;58775;46.992;9.518;2023-08-24T06:40:44;28.96;53.81
71117;SHT31;58775;46.992;9.518;2023-08-24T06:42:45;28.91;54.60
71117;SHT31;58775;46.992;9.518;2023-08-24T06:44:47;29.08;54.49
71117;SHT31;58775;46.992;9.518;2023-08-24T06:46:50;29.36;54.60
71117;SHT31;58775;46.992;9.518;2023-08-24T06:48:51;29.20;54.22
71117;SHT31;58775;46.992;9.518;2023-08-24T06:50:52;29.25;54.22
71117;SHT31;58775;46.992;9.518;2023-08-24T06:52:58;29.18;54.16
71117;SHT31;58775;46.992;9.518;2023-08-24T06:55:02;29.60;53.63
71117;SHT31;58775;46.992;9.518;2023-08-24T06:57:06;29.76;53.96
71117;SHT31;58775;46.992;9.518;2023-08-24T06:59:10;29.64;54.31
71117;SHT31;58775;46.992;9.518;2023-08-24T07:01:18;29.92;53.30
71117;SHT31;58775;46.992;9.518;2023-08-24T07:03:22;29.87;53.00
71117;SHT31;58775;46.992;9.518;2023-08-24T07:05:26;30.02;52.47
71117;SHT31;58775;46.992;9.518;2023-08-24T07:07:27;30.43;52.25
71117;SHT31;58775;46.992;9.518;2023-08-24T07:09:30;30.92;51.99
71117;SHT31;58775;46.992;9.518;2023-08-24T07:11:48;31.12;50.02
71117;SHT31;58775;46.992;9.518;2023-08-24T07:13:59;31.09;50.01
71117;SHT31;58775;46.992;9.518;2023-08-24T07:16:06;31.30;50.27
71117;SHT31;58775;46.992;9.518;2023-08-24T07:18:27;31.29;50.09
71117;SHT31;58775;46.992;9.518;2023-08-24T07:20:49;30.78;49.99
71117;SHT31;58775;46.992;9.518;2023-08-24T07:22:50;30.89;50.17
71117;SHT31;58775;46.992;9.518;2023-08-24T07:25:05;31.77;49.23
71117;SHT31;58775;46.992;9.518;2023-08-24T07:27:06;32.01;48.06
71117;SHT31;58775;46.992;9.518;2023-08-24T07:29:17;31.44;48.00
71117;SHT31;58775;46.992;9.518;2023-08-24T07:31:40;30.55;49.95
71117;SHT31;58775;46.992;9.518;2023-08-24T07:33:42;30.53;50.44
71117;SHT31;58775;46.992;9.518;2023-08-24T07:35:45;29.96;51.72
71117;SHT31;58775;46.992;9.518;2023-08-24T07:37:50;29.96;52.24
71117;SHT31;58775;46.992;9.518;2023-08-24T07:40:04;29.57;51.55
71117;SHT31;58775;46.992;9.518;2023-08-24T07:42:07;29.47;52.21
71117;SHT31;58775;46.992;9.518;2023-08-24T07:44:08;29.42;52.53
71117;SHT31;58775;46.992;9.518;2023-08-24T07:46:09;29.27;52.49
71117;SHT31;58775;46.992;9.518;2023-08-24T07:48:09;29.00;52.99
71117;SHT31;58775;46.992;9.518;2023-08-24T07:50:11;28.89;53.43
71117;SHT31;58775;46.992;9.518;2023-08-24T07:52:12;28.92;53.68
71117;SHT31;58775;46.992;9.518;2023-08-24T07:54:13;28.99;53.28
71117;SHT31;58775;46.992;9.518;2023-08-24T07:56:16;29.05;52.77
71117;SHT31;58775;46.992;9.518;2023-08-24T07:58:19;29.16;53.03
71117;SHT31;58775;46.992;9.518;2023-08-24T08:00:20;28.89;53.01
71117;SHT31;58775;46.992;9.518;2023-08-24T08:02:21;29.10;54.42
71117;SHT31;58775;46.992;9.518;2023-08-24T08:04:22;29.06;53.72
71117;SHT31;58775;46.992;9.518;2023-08-24T08:06:23;29.19;52.98
71117;SHT31;58775;46.992;9.518;2023-08-24T08:08:25;29.27;53.62
71117;SHT31;58775;46.992;9.518;2023-08-24T08:10:26;29.05;53.65
71117;SHT31;58775;46.992;9.518;2023-08-24T08:12:27;28.98;53.82
71117;SHT31;58775;46.992;9.518;2023-08-24T08:14:31;29.49;53.66
71117;SHT31;58775;46.992;9.518;2023-08-24T08:16:32;29.76;53.46
71117;SHT31;58775;46.992;9.518;2023-08-24T08:18:34;30.15;52.22
71117;SHT31;58775;46.992;9.518;2023-08-24T08:20:35;30.63;51.12
71117;SHT31;58775;46.992;9.518;2023-08-24T08:22:38;30.76;50.65
71117;SHT31;58775;46.992;9.518;2023-08-24T08:24:39;30.55;50.82
71117;SHT31;58775;46.992;9.518;2023-08-24T08:26:40;30.59;50.99
71117;SHT31;58775;46.992;9.518;2023-08-24T08:28:41;30.79;51.43
71117;SHT31;58775;46.992;9.518;2023-08-24T08:30:42;30.92;50.15
71117;SHT31;58775;46.992;9.518;2023-08-24T08:32:43;30.84;50.12
71117;SHT31;58775;46.992;9.518;2023-08-24T08:34:44;30.92;50.14
71117;SHT31;58775;46.992;9.518;2023-08-24T08:36:45;30.72;50.07
71117;SHT31;58775;46.992;9.518;2023-08-24T08:38:46;30.65;50.81
71117;SHT31;58775;46.992;9.518;2023-08-24T08:40:49;30.75;51.15
71117;SHT31;58775;46.992;9.518;2023-08-24T08:42:50;30.80;51.87
71117;SHT31;58775;46.992;9.518;2023-08-24T08:44:51;31.04;51.98
71117;SHT31;58775;46.992;9.518;2023-08-24T08:46:55;31.20;51.47
71117;SHT31;58775;46.992;9.518;2023-08-24T08:49:03;31.44;50.27
71117;SHT31;58775;46.992;9.518;2023-08-24T08:51:05;31.71;54.01
71117;SHT31;58775;46.992;9.518;2023-08-24T08:53:06;32.60;49.29
71117;SHT31;58775;46.992;9.518;2023-08-24T08:55:09;33.44;47.34
71117;SHT31;58775;46.992;9.518;2023-08-24T08:57:14;33.76;45.26
71117;SHT31;58775;46.992;9.518;2023-08-24T08:59:32;35.08;46.52
71117;SHT31;58775;46.992;9.518;2023-08-24T09:20:41;38.95;42.90
71117;SHT31;58775;46.992;9.518;2023-08-24T09:22:42;39.69;42.54
71117;SHT31;58775;46.992;9.518;2023-08-24T09:30:02;39.46;41.46
71117;SHT31;58775;46.992;9.518;2023-08-24T09:32:07;39.21;42.94
71117;SHT31;58775;46.992;9.518;2023-08-24T09:34:35;39.66;42.62
71117;SHT31;58775;46.992;9.518;2023-08-24T09:36:37;38.36;46.03
71117;SHT31;58775;46.992;9.518;2023-08-24T09:39:04;38.79;41.61
71117;SHT31;58775;46.992;9.518;2023-08-24T09:41:16;37.31;47.03
71117;SHT31;58775;46.992;9.518;2023-08-24T09:43:20;35.75;48.83
71117;SHT31;58775;46.992;9.518;2023-08-24T09:49:13;36.17;48.72
71117;SHT31;58775;46.992;9.518;2023-08-24T09:51:57;38.00;43.47
71117;SHT31;58775;46.992;9.518;2023-08-24T09:54:06;37.70;47.44
71117;SHT31;58775;46.992;9.518;2023-08-24T09:56:28;37.68;49.69
71117;SHT31;58775;46.992;9.518;2023-08-24T09:58:38;37.04;46.45
71117;SHT31;58775;46.992;9.518;2023-08-24T10:00:49;39.50;42.05
71117;SHT31;58775;46.992;9.518;2023-08-24T10:02:52;39.29;45.35
71117;SHT31;58775;46.992;9.518;2023-08-24T10:04:59;38.63;42.45
71117;SHT31;58775;46.992;9.518;2023-08-24T10:10:09;40.85;38.08
71117;SHT31;58775;46.992;9.518;2023-08-24T10:12:37;42.10;40.17
71117;SHT31;58775;46.992;9.518;2023-08-24T10:15:04;42.23;38.25
71117;SHT31;58775;46.992;9.518;2023-08-24T10:17:09;42.16;37.44
71117;SHT31;58775;46.992;9.518;2023-08-24T10:19:11;38.82;44.63
71117;SHT31;58775;46.992;9.518;2023-08-24T10:24:08;41.21;40.07
71117;SHT31;58775;46.992;9.518;2023-08-24T10:29:53;39.60;42.51
71117;SHT31;58775;46.992;9.518;2023-08-24T10:35:38;37.19;46.76
71117;SHT31;58775;46.992;9.518;2023-08-24T10:37:44;39.22;39.30
71117;SHT31;58775;46.992;9.518;2023-08-24T10:39:49;40.64;40.59
71117;SHT31;58775;46.992;9.518;2023-08-24T10:41:52;40.45;42.92
71117;SHT31;58775;46.992;9.518;2023-08-24T10:44:05;39.29;44.90
71117;SHT31;58775;46.992;9.518;2023-08-24T10:46:18;40.33;41.66
71117;SHT31;58775;46.992;9.518;2023-08-24T10:51:24;39.19;45.54
71117;SHT31;58775;46.992;9.518;2023-08-24T10:53:37;41.29;39.85
71117;SHT31;58775;46.992;9.518;2023-08-24T10:55:41;41.66;38.43
71117;SHT31;58775;46.992;9.518;2023-08-24T10:58:05;40.67;40.87
71117;SHT31;58775;46.992;9.518;2023-08-24T11:00:10;42.08;37.76
71117;SHT31;58775;46.992;9.518;2023-08-24T11:02:20;41.61;38.92
71117;SHT31;58775;46.992;9.518;2023-08-24T11:04:21;40.04;42.61
71117;SHT31;58775;46.992;9.518;2023-08-24T11:06:23;40.57;40.36
71117;SHT31;58775;46.992;9.518;2023-08-24T11:08:44;40.84;41.77
71117;SHT31;58775;46.992;9.518;2023-08-24T11:10:46;41.49;40.61
71117;SHT31;58775;46.992;9.518;2023-08-24T11:13:17;41.08;41.08
71117;SHT31;58775;46.992;9.518;2023-08-24T11:15:32;41.18;41.25
71117;SHT31;58775;46.992;9.518;2023-08-24T11:17:33;41.68;39.53
71117;SHT31;58775;46.992;9.518;2023-08-24T11:19:35;41.29;40.06
71117;SHT31;58775;46.992;9.518;2023-08-24T11:21:40;41.77;41.35
71117;SHT31;58775;46.992;9.518;2023-08-24T11:23:42;41.77;39.22
71117;SHT31;58775;46.992;9.518;2023-08-24T11:25:44;41.77;39.63
71117;SHT31;58775;46.992;9.518;2023-08-24T11:27:46;41.65;40.58
71117;SHT31;58775;46.992;9.518;2023-08-24T11:29:47;39.33;45.98
71117;SHT31;58775;46.992;9.518;2023-08-24T11:31:48;40.47;43.49
71117;SHT31;58775;46.992;9.518;2023-08-24T11:33:53;38.54;44.78
71117;SHT31;58775;46.992;9.518;2023-08-24T11:35:56;37.58;48.06
71117;SHT31;58775;46.992;9.518;2023-08-24T11:38:00;38.19;48.57
71117;SHT31;58775;46.992;9.518;2023-08-24T11:40:04;38.41;47.32
71117;SHT31;58775;46.992;9.518;2023-08-24T11:42:08;39.35;43.54
71117;SHT31;58775;46.992;9.518;2023-08-24T11:44:11;38.85;43.45
71117;SHT31;58775;46.992;9.518;2023-08-24T11:46:15;39.14;43.28
71117;SHT31;58775;46.992;9.518;2023-08-24T11:48:16;38.57;44.82
71117;SHT31;58775;46.992;9.518;2023-08-24T11:50:17;38.21;47.71
71117;SHT31;58775;46.992;9.518;2023-08-24T11:52:19;38.43;44.66
71117;SHT31;58775;46.992;9.518;2023-08-24T11:54:20;37.25;49.78
71117;SHT31;58775;46.992;9.518;2023-08-24T11:56:21;37.58;49.36
71117;SHT31;58775;46.992;9.518;2023-08-24T11:58:22;36.48;51.35
71117;SHT31;58775;46.992;9.518;2023-08-24T12:00:24;37.18;48.24
71117;SHT31;58775;46.992;9.518;2023-08-24T12:02:25;37.54;48.74
71117;SHT31;58775;46.992;9.518;2023-08-24T12:04:26;38.87;44.81
71117;SHT31;58775;46.992;9.518;2023-08-24T12:06:27;36.94;49.69
71117;SHT31;58775;46.992;9.518;2023-08-24T12:08:29;35.85;52.38
71117;SHT31;58775;46.992;9.518;2023-08-24T12:10:30;37.72;45.73
71117;SHT31;58775;46.992;9.518;2023-08-24T12:12:31;38.66;44.45
71117;SHT31;58775;46.992;9.518;2023-08-24T12:14:45;38.09;47.14
71117;SHT31;58775;46.992;9.518;2023-08-24T12:16:46;36.94;50.23
71117;SHT31;58775;46.992;9.518;2023-08-24T12:18:57;37.72;50.68
71117;SHT31;58775;46.992;9.518;2023-08-24T12:21:03;39.02;43.06
71117;SHT31;58775;46.992;9.518;2023-08-24T12:23:06;37.64;44.78
71117;SHT31;58775;46.992;9.518;2023-08-24T12:25:07;37.32;48.28
71117;SHT31;58775;46.992;9.518;2023-08-24T12:27:20;36.44;48.90
71117;SHT31;58775;46.992;9.518;2023-08-24T12:29:22;36.19;48.19
71117;SHT31;58775;46.992;9.518;2023-08-24T12:31:26;35.11;53.15
71117;SHT31;58775;46.992;9.518;2023-08-24T12:33:30;34.31;55.47
71117;SHT31;58775;46.992;9.518;2023-08-24T12:35:32;34.83;54.03
71117;SHT31;58775;46.992;9.518;2023-08-24T12:37:33;34.19;53.80
71117;SHT31;58775;46.992;9.518;2023-08-24T12:39:36;33.72;56.10
71117;SHT31;58775;46.992;9.518;2023-08-24T12:41:37;34.73;53.51
71117;SHT31;58775;46.992;9.518;2023-08-24T12:43:39;34.91;54.35
71117;SHT31;58775;46.992;9.518;2023-08-24T12:45:40;34.42;55.14
71117;SHT31;58775;46.992;9.518;2023-08-24T12:47:41;34.77;54.71
71117;SHT31;58775;46.992;9.518;2023-08-24T12:49:42;35.04;53.27
71117;SHT31;58775;46.992;9.518;2023-08-24T12:51:43;34.55;55.08
71117;SHT31;58775;46.992;9.518;2023-08-24T12:53:44;33.35;57.76
71117;SHT31;58775;46.992;9.518;2023-08-24T12:55:45;32.82;59.05
71117;SHT31;58775;46.992;9.518;2023-08-24T12:57:46;33.03;57.25
71117;SHT31;58775;46.992;9.518;2023-08-24T12:59:47;31.94;61.04
71117;SHT31;58775;46.992;9.518;2023-08-24T13:01:48;31.70;60.82
71117;SHT31;58775;46.992;9.518;2023-08-24T13:03:49;31.86;62.09
71117;SHT31;58775;46.992;9.518;2023-08-24T13:05:50;32.18;61.89
71117;SHT31;58775;46.992;9.518;2023-08-24T13:07:50;32.18;60.05
71117;SHT31;58775;46.992;9.518;2023-08-24T13:09:52;32.46;57.73
71117;SHT31;58775;46.992;9.518;2023-08-24T13:11:52;32.56;59.04
71117;SHT31;58775;46.992;9.518;2023-08-24T13:13:53;31.80;60.99
71117;SHT31;58775;46.992;9.518;2023-08-24T13:15:55;31.22;61.27
71117;SHT31;58775;46.992;9.518;2023-08-24T13:17:56;30.82;63.28
71117;SHT31;58775;46.992;9.518;2023-08-24T13:19:58;30.76;61.85
71117;SHT31;58775;46.992;9.518;2023-08-24T13:21:58;31.16;61.04
71117;SHT31;58775;46.992;9.518;2023-08-24T13:23:59;31.57;60.14
71117;SHT31;58775;46.992;9.518;2023-08-24T13:26:00;32.35;54.21
71117;SHT31;58775;46.992;9.518;2023-08-24T13:28:01;32.77;57.67
71117;SHT31;58775;46.992;9.518;2023-08-24T13:30:03;33.28;50.33
71117;SHT31;58775;46.992;9.518;2023-08-24T13:32:05;32.97;55.91
71117;SHT31;58775;46.992;9.518;2023-08-24T13:34:05;32.57;56.30
71117;SHT31;58775;46.992;9.518;2023-08-24T13:36:08;32.79;58.04
71117;SHT31;58775;46.992;9.518;2023-08-24T13:38:08;33.24;55.34
71117;SHT31;58775;46.992;9.518;2023-08-24T13:40:10;33.03;59.23
71117;SHT31;58775;46.992;9.518;2023-08-24T13:42:10;33.58;60.06
71117;SHT31;58775;46.992;9.518;2023-08-24T13:44:11;33.17;58.45
71117;SHT31;58775;46.992;9.518;2023-08-24T13:46:12;33.94;57.24
71117;SHT31;58775;46.992;9.518;2023-08-24T13:48:13;33.30;60.06
71117;SHT31;58775;46.992;9.518;2023-08-24T13:50:14;33.34;57.41
71117;SHT31;58775;46.992;9.518;2023-08-24T13:52:16;32.15;60.65
71117;SHT31;58775;46.992;9.518;2023-08-24T13:54:19;32.29;59.65
71117;SHT31;58775;46.992;9.518;2023-08-24T13:56:21;32.19;61.13
71117;SHT31;58775;46.992;9.518;2023-08-24T13:58:22;31.55;61.16
71117;SHT31;58775;46.992;9.518;2023-08-24T14:00:23;31.12;62.87
71117;SHT31;58775;46.992;9.518;2023-08-24T14:02:23;31.02;65.75
71117;SHT31;58775;46.992;9.518;2023-08-24T14:04:24;31.47;64.71
71117;SHT31;58775;46.992;9.518;2023-08-24T14:06:28;31.47;64.21
71117;SHT31;58775;46.992;9.518;2023-08-24T14:08:29;31.29;64.71
71117;SHT31;58775;46.992;9.518;2023-08-24T14:10:30;31.82;62.69
71117;SHT31;58775;46.992;9.518;2023-08-24T14:12:31;32.21;60.97
71117;SHT31;58775;46.992;9.518;2023-08-24T14:14:32;32.26;61.04
71117;SHT31;58775;46.992;9.518;2023-08-24T14:16:33;32.45;57.77
71117;SHT31;58775;46.992;9.518;2023-08-24T14:18:34;32.08;59.17
71117;SHT31;58775;46.992;9.518;2023-08-24T14:20:36;32.09;62.19
71117;SHT31;58775;46.992;9.518;2023-08-24T14:22:37;31.96;63.42
71117;SHT31;58775;46.992;9.518;2023-08-24T14:24:39;32.09;55.23
71117;SHT31;58775;46.992;9.518;2023-08-24T14:26:39;32.26;54.31
71117;SHT31;58775;46.992;9.518;2023-08-24T14:28:56;32.32;55.42
71117;SHT31;58775;46.992;9.518;2023-08-24T14:30:59;32.19;52.43
71117;SHT31;58775;46.992;9.518;2023-08-24T14:33:00;31.67;53.78
71117;SHT31;58775;46.992;9.518;2023-08-24T14:35:01;31.29;55.08
71117;SHT31;58775;46.992;9.518;2023-08-24T14:37:04;30.92;54.77
71117;SHT31;58775;46.992;9.518;2023-08-24T14:39:05;30.73;54.47
71117;SHT31;58775;46.992;9.518;2023-08-24T14:41:08;30.53;55.03
71117;SHT31;58775;46.992;9.518;2023-08-24T14:43:09;30.01;55.18
71117;SHT31;58775;46.992;9.518;2023-08-24T14:45:10;29.71;56.77
71117;SHT31;58775;46.992;9.518;2023-08-24T14:47:11;29.47;56.74
71117;SHT31;58775;46.992;9.518;2023-08-24T14:49:12;29.33;57.52
71117;SHT31;58775;46.992;9.518;2023-08-24T14:51:18;29.57;58.08
71117;SHT31;58775;46.992;9.518;2023-08-24T14:53:20;29.46;57.28
71117;SHT31;58775;46.992;9.518;2023-08-24T14:55:20;29.32;58.58
71117;SHT31;58775;46.992;9.518;2023-08-24T14:57:21;29.20;60.30
71117;SHT31;58775;46.992;9.518;2023-08-24T14:59:22;29.16;60.05
71117;SHT31;58775;46.992;9.518;2023-08-24T17:35:06;27.04;63.81
71117;SHT31;58775;46.992;9.518;2023-08-24T17:38:40;26.83;62.85
71117;SHT31;58775;46.992;9.518;2023-08-24T17:40:44;26.76;63.38
71117;SHT31;58775;46.992;9.518;2023-08-24T17:42:51;26.73;62.95
71117;SHT31;58775;46.992;9.518;2023-08-24T17:45:05;26.80;63.28
71117;SHT31;58775;46.992;9.518;2023-08-24T17:47:06;26.84;63.13
71117;SHT31;58775;46.992;9.518;2023-08-24T17:49:10;26.85;62.79
71117;SHT31;58775;46.992;9.518;2023-08-24T17:51:10;26.88;62.77
71117;SHT31;58775;46.992;9.518;2023-08-24T17:53:20;26.68;64.91
71117;SHT31;58775;46.992;9.518;2023-08-24T18:08:22;26.58;69.37
71117;SHT31;58775;46.992;9.518;2023-08-24T18:10:23;26.63;69.58
71117;SHT31;58775;46.992;9.518;2023-08-24T18:12:24;26.67;68.76
71117;SHT31;58775;46.992;9.518;2023-08-24T18:14:34;26.54;67.46
71117;SHT31;58775;46.992;9.518;2023-08-24T18:16:50;26.70;61.91
71117;SHT31;58775;46.992;9.518;2023-08-24T18:19:55;27.19;60.11
71117;SHT31;58775;46.992;9.518;2023-08-24T18:22:33;27.55;60.02
71117;SHT31;58775;46.992;9.518;2023-08-24T18:38:49;27.28;64.92
71117;SHT31;58775;46.992;9.518;2023-08-24T19:25:12;23.77;83.08
71117;SHT31;58775;46.992;9.518;2023-08-24T19:27:16;23.44;85.43
71117;SHT31;58775;46.992;9.518;2023-08-24T19:53:10;23.19;82.96
71117;SHT31;58775;46.992;9.518;2023-08-24T19:58:36;23.10;82.22
71117;SHT31;58775;46.992;9.518;2023-08-24T20:00:39;23.14;80.91
71117;SHT31;58775;46.992;9.518;2023-08-24T20:07:21;23.19;83.34
